sensor_id;sensor_type;location;lat;lon;timestamp;temperature;humidity
22112;DHT22;11222;50.872;4.312;2023-11-18T00:02:19;8.20;99.90
22112;DHT22;11222;50.872;4.312;2023-11-18T00:04:44;8.20;99.90
22112;DHT22;11222;50.872;4.312;2023-11-18T00:07:10;8.30;99.90
22112;DHT22;11222;50.872;4.312;2023-11-18T00:09:35;8.30;99.90
22112;DHT22;11222;50.872;4.312;2023-11-18T00:12:02;8.40;99.90
22112;DHT22;11222;50.872;4.312;2023-11-18T00:14:29;8.40;99.90
22112;DHT22;11222;50.872;4.312;2023-11-18T00:16:54;8.40;99.90
22112;DHT22;11222;50.872;4.312;2023-11-18T00:19:20;8.20;99.90
22112;DHT22;11222;50.872;4.312;2023-11-18T00:21:45;8.20;99.90
22112;DHT22;11222;50.872;4.312;2023-11-18T00:24:11;8.30;99.90
22112;DHT22;11222;50.872;4.312;2023-11-18T00:26:37;8.30;99.90
22112;DHT22;11222;50.872;4.312;2023-11-18T00:29:02;8.30;99.90
22112;DHT22;11222;50.872;4.312;2023-11-18T00:31:28;8.20;99.90
22112;DHT22;11222;50.872;4.312;2023-11-18T00:33:54;8.10;99.90
22112;DHT22;11222;50.872;4.312;2023-11-18T00:36:20;8.00;99.90
22112;DHT22;11222;50.872;4.312;2023-11-18T00:38:46;8.00;99.90
22112;DHT22;11222;50.872;4.312;2023-11-18T00:41:12;7.90;99.90
22112;DHT22;11222;50.872;4.312;2023-11-18T00:43:38;8.00;99.90
22112;DHT22;11222;50.872;4.312;2023-11-18T00:46:03;7.90;99.90
22112;DHT22;11222;50.872;4.312;2023-11-18T00:48:30;7.90;99.90
22112;DHT22;11222;50.872;4.312;2023-11-18T00:50:56;7.90;99.90
22112;DHT22;11222;50.872;4.312;2023-11-18T00:53:21;8.00;99.90
22112;DHT22;11222;50.872;4.312;2023-11-18T00:55:47;7.90;99.90
22112;DHT22;11222;50.872;4.312;2023-11-18T00:58:13;7.90;99.90
22112;DHT22;11222;50.872;4.312;2023-11-18T01:00:38;8.00;99.90
22112;DHT22;11222;50.872;4.312;2023-11-18T01:03:04;8.00;99.90
22112;DHT22;11222;50.872;4.312;2023-11-18T01:05:30;8.00;99.90
22112;DHT22;11222;50.872;4.312;2023-11-18T01:07:59;8.00;99.90
22112;DHT22;11222;50.872;4.312;2023-11-18T01:10:25;8.00;99.90
22112;DHT22;11222;50.872;4.312;2023-11-18T01:12:50;8.10;99.90
22112;DHT22;11222;50.872;4.312;2023-11-18T01:15:16;8.10;99.90
22112;DHT22;11222;50.872;4.312;2023-11-18T01:17:42;8.10;99.90
22112;DHT22;11222;50.872;4.312;2023-11-18T01:20:07;8.20;99.90
22112;DHT22;11222;50.872;4.312;2023-11-18T01:22:39;8.20;99.90
22112;DHT22;11222;50.872;4.312;2023-11-18T01:25:05;8.20;99.90
22112;DHT22;11222;50.872;4.312;2023-11-18T01:27:31;8.30;99.90
22112;DHT22;11222;50.872;4.312;2023-11-18T01:29:59;8.30;99.90
22112;DHT22;11222;50.872;4.312;2023-11-18T01:32:25;8.30;99.90
22112;DHT22;11222;50.872;4.312;2023-11-18T01:34:51;8.30;99.90
22112;DHT22;11222;50.872;4.312;2023-11-18T01:37:16;8.30;99.90
22112;DHT22;11222;50.872;4.312;2023-11-18T01:39:42;8.30;99.90
22112;DHT22;11222;50.872;4.312;2023-11-18T01:42:08;8.20;99.90
22112;DHT22;11222;50.872;4.312;2023-11-18T01:44:33;8.10;99.90
22112;DHT22;11222;50.872;4.312;2023-11-18T01:47:01;8.10;99.90
22112;DHT22;11222;50.872;4.312;2023-11-18T01:49:28;8.10;99.90
22112;DHT22;11222;50.872;4.312;2023-11-18T01:51:54;8.20;99.90
22112;DHT22;11222;50.872;4.312;2023-11-18T01:54:21;8.20;99.90
22112;DHT22;11222;50.872;4.312;2023-11-18T01:56:47;8.20;99.90
22112;DHT22;11222;50.872;4.312;2023-11-18T01:59:13;8.20;99.90
22112;DHT22;11222;50.872;4.312;2023-11-18T02:01:48;8.20;99.90
22112;DHT22;11222;50.872;4.312;2023-11-18T02:04:15;8.20;99.90
22112;DHT22;11222;50.872;4.312;2023-11-18T02:06:42;8.30;99.90
22112;DHT22;11222;50.872;4.312;2023-11-18T02:09:07;8.30;99.90
22112;DHT22;11222;50.872;4.312;2023-11-18T02:11:37;8.20;99.90
22112;DHT22;11222;50.872;4.312;2023-11-18T02:14:07;8.10;99.90
22112;DHT22;11222;50.872;4.312;2023-11-18T02:16:36;8.10;99.90
22112;DHT22;11222;50.872;4.312;2023-11-18T02:19:03;8.20;99.90
22112;DHT22;11222;50.872;4.312;2023-11-18T02:21:34;8.20;99.90
22112;DHT22;11222;50.872;4.312;2023-11-18T02:24:00;8.20;99.90
22112;DHT22;11222;50.872;4.312;2023-11-18T02:26:26;8.20;99.90
22112;DHT22;11222;50.872;4.312;2023-11-18T02:28:52;8.20;99.90
22112;DHT22;11222;50.872;4.312;2023-11-18T02:31:27;8.30;99.90
22112;DHT22;11222;50.872;4.312;2023-11-18T02:34:08;8.40;99.90
22112;DHT22;11222;50.872;4.312;2023-11-18T02:36:44;8.50;99.90
22112;DHT22;11222;50.872;4.312;2023-11-18T02:39:12;8.50;99.90
22112;DHT22;11222;50.872;4.312;2023-11-18T02:41:42;8.50;99.90
22112;DHT22;11222;50.872;4.312;2023-11-18T02:44:10;8.60;99.90
22112;DHT22;11222;50.872;4.312;2023-11-18T02:46:36;8.70;99.90
22112;DHT22;11222;50.872;4.312;2023-11-18T02:49:03;8.60;99.90
22112;DHT22;11222;50.872;4.312;2023-11-18T02:51:29;8.60;99.90
22112;DHT22;11222;50.872;4.312;2023-11-18T02:53:57;8.50;99.90
22112;DHT22;11222;50.872;4.312;2023-11-18T02:56:22;8.60;99.90
22112;DHT22;11222;50.872;4.312;2023-11-18T02:58:48;8.60;99.90
22112;DHT22;11222;50.872;4.312;2023-11-18T03:01:13;8.60;99.90
22112;DHT22;11222;50.872;4.312;2023-11-18T03:03:39;8.60;99.90
22112;DHT22;11222;50.872;4.312;2023-11-18T03:06:04;8.70;99.90
22112;DHT22;11222;50.872;4.312;2023-11-18T03:08:31;8.70;99.90
22112;DHT22;11222;50.872;4.312;2023-11-18T03:10:57;8.80;99.90
22112;DHT22;11222;50.872;4.312;2023-11-18T03:13:23;8.60;99.90
22112;DHT22;11222;50.872;4.312;2023-11-18T03:15:49;8.40;99.90
22112;DHT22;11222;50.872;4.312;2023-11-18T03:18:15;8.40;99.90
22112;DHT22;11222;50.872;4.312;2023-11-18T03:20:41;8.50;99.90
22112;DHT22;11222;50.872;4.312;2023-11-18T03:23:06;8.50;99.90
22112;DHT22;11222;50.872;4.312;2023-11-18T03:25:34;8.60;99.90
22112;DHT22;11222;50.872;4.312;2023-11-18T03:28:00;8.60;99.90
22112;DHT22;11222;50.872;4.312;2023-11-18T03:30:26;8.60;99.90
22112;DHT22;11222;50.872;4.312;2023-11-18T03:32:51;8.60;99.90
22112;DHT22;11222;50.872;4.312;2023-11-18T03:35:17;8.60;99.90
22112;DHT22;11222;50.872;4.312;2023-11-18T03:37:42;8.70;99.90
22112;DHT22;11222;50.872;4.312;2023-11-18T03:40:08;8.70;99.90
22112;DHT22;11222;50.872;4.312;2023-11-18T03:42:34;8.60;99.90
22112;DHT22;11222;50.872;4.312;2023-11-18T03:45:01;8.70;99.90
22112;DHT22;11222;50.872;4.312;2023-11-18T03:47:27;8.60;99.90
22112;DHT22;11222;50.872;4.312;2023-11-18T03:49:52;8.70;99.90
22112;DHT22;11222;50.872;4.312;2023-11-18T03:52:19;8.80;99.90
22112;DHT22;11222;50.872;4.312;2023-11-18T03:54:45;8.80;99.90
22112;DHT22;11222;50.872;4.312;2023-11-18T03:57:10;8.80;99.90
22112;DHT22;11222;50.872;4.312;2023-11-18T03:59:36;8.80;99.90
22112;DHT22;11222;50.872;4.312;2023-11-18T04:02:01;8.80;99.90
22112;DHT22;11222;50.872;4.312;2023-11-18T04:04:27;8.80;99.90
22112;DHT22;11222;50.872;4.312;2023-11-18T04:06:52;8.80;99.90
22112;DHT22;11222;50.872;4.312;2023-11-18T04:09:18;8.80;99.90
22112;DHT22;11222;50.872;4.312;2023-11-18T04:11:43;8.80;99.90
22112;DHT22;11222;50.872;4.312;2023-11-18T04:14:10;8.70;99.90
22112;DHT22;11222;50.872;4.312;2023-11-18T04:16:36;8.70;99.90
22112;DHT22;11222;50.872;4.312;2023-11-18T04:19:03;8.70;99.90
22112;DHT22;11222;50.872;4.312;2023-11-18T04:21:29;8.70;99.90
22112;DHT22;11222;50.872;4.312;2023-11-18T04:23:54;8.60;99.90
22112;DHT22;11222;50.872;4.312;2023-11-18T04:26:20;8.60;99.90
22112;DHT22;11222;50.872;4.312;2023-11-18T04:28:45;8.70;99.90
22112;DHT22;11222;50.872;4.312;2023-11-18T04:31:11;8.60;99.90
22112;DHT22;11222;50.872;4.312;2023-11-18T04:33:36;8.60;99.90
22112;DHT22;11222;50.872;4.312;2023-11-18T04:36:02;8.70;99.90
22112;DHT22;11222;50.872;4.312;2023-11-18T04:38:30;8.70;99.90
22112;DHT22;11222;50.872;4.312;2023-11-18T04:40:57;8.80;99.90
22112;DHT22;11222;50.872;4.312;2023-11-18T04:43:22;8.80;99.90
22112;DHT22;11222;50.872;4.312;2023-11-18T04:45:49;8.90;99.90
22112;DHT22;11222;50.872;4.312;2023-11-18T04:48:14;8.80;99.90
22112;DHT22;11222;50.872;4.312;2023-11-18T04:50:41;8.80;99.90
22112;DHT22;11222;50.872;4.312;2023-11-18T04:53:06;8.80;99.90
22112;DHT22;11222;50.872;4.312;2023-11-18T04:55:36;8.70;99.90
22112;DHT22;11222;50.872;4.312;2023-11-18T04:58:02;8.70;99.90
22112;DHT22;11222;50.872;4.312;2023-11-18T05:00:28;8.70;99.90
22112;DHT22;11222;50.872;4.312;2023-11-18T05:02:54;8.70;99.90
22112;DHT22;11222;50.872;4.312;2023-11-18T05:05:19;8.80;99.90
22112;DHT22;11222;50.872;4.312;2023-11-18T05:07:45;8.80;99.90
22112;DHT22;11222;50.872;4.312;2023-11-18T05:10:10;8.80;99.90
22112;DHT22;11222;50.872;4.312;2023-11-18T05:12:37;9.00;99.90
22112;DHT22;11222;50.872;4.312;2023-11-18T05:15:03;9.00;99.90
22112;DHT22;11222;50.872;4.312;2023-11-18T05:17:30;9.00;99.90
22112;DHT22;11222;50.872;4.312;2023-11-18T05:19:55;8.90;99.90
22112;DHT22;11222;50.872;4.312;2023-11-18T05:22:21;9.00;99.90
22112;DHT22;11222;50.872;4.312;2023-11-18T05:24:46;9.00;99.90
22112;DHT22;11222;50.872;4.312;2023-11-18T05:27:13;9.10;99.90
22112;DHT22;11222;50.872;4.312;2023-11-18T05:29:39;9.10;99.90
22112;DHT22;11222;50.872;4.312;2023-11-18T05:32:07;9.00;99.90
22112;DHT22;11222;50.872;4.312;2023-11-18T05:34:33;9.00;99.90
22112;DHT22;11222;50.872;4.312;2023-11-18T05:36:58;9.00;99.90
22112;DHT22;11222;50.872;4.312;2023-11-18T05:39:24;8.90;99.90
22112;DHT22;11222;50.872;4.312;2023-11-18T05:41:53;8.90;99.90
22112;DHT22;11222;50.872;4.312;2023-11-18T05:44:21;9.10;99.90
22112;DHT22;11222;50.872;4.312;2023-11-18T05:46:58;9.10;99.90
22112;DHT22;11222;50.872;4.312;2023-11-18T05:49:23;9.10;99.90
22112;DHT22;11222;50.872;4.312;2023-11-18T05:51:50;9.10;99.90
22112;DHT22;11222;50.872;4.312;2023-11-18T05:54:15;9.10;99.90
22112;DHT22;11222;50.872;4.312;2023-11-18T05:56:41;9.10;99.90
22112;DHT22;11222;50.872;4.312;2023-11-18T05:59:06;9.20;99.90
22112;DHT22;11222;50.872;4.312;2023-11-18T06:01:33;9.20;99.90
22112;DHT22;11222;50.872;4.312;2023-11-18T06:04:00;9.10;99.90
22112;DHT22;11222;50.872;4.312;2023-11-18T06:06:26;9.10;99.90
22112;DHT22;11222;50.872;4.312;2023-11-18T06:08:51;9.10;99.90
22112;DHT22;11222;50.872;4.312;2023-11-18T06:11:17;9.10;99.90
22112;DHT22;11222;50.872;4.312;2023-11-18T06:13:51;9.20;99.90
22112;DHT22;11222;50.872;4.312;2023-11-18T06:16:18;9.10;99.90
22112;DHT22;11222;50.872;4.312;2023-11-18T06:18:47;9.10;99.90
22112;DHT22;11222;50.872;4.312;2023-11-18T06:21:19;9.10;99.90
22112;DHT22;11222;50.872;4.312;2023-11-18T06:23:46;9.10;99.90
22112;DHT22;11222;50.872;4.312;2023-11-18T06:26:12;9.10;99.90
22112;DHT22;11222;50.872;4.312;2023-11-18T06:28:39;9.20;99.90
22112;DHT22;11222;50.872;4.312;2023-11-18T06:31:05;9.20;99.90
22112;DHT22;11222;50.872;4.312;2023-11-18T06:33:37;9.20;99.90
22112;DHT22;11222;50.872;4.312;2023-11-18T06:36:04;9.20;99.90
22112;DHT22;11222;50.872;4.312;2023-11-18T06:38:30;9.20;99.90
22112;DHT22;11222;50.872;4.312;2023-11-18T06:40:56;9.10;99.90
22112;DHT22;11222;50.872;4.312;2023-11-18T06:43:21;9.10;99.90
22112;DHT22;11222;50.872;4.312;2023-11-18T06:45:47;9.20;99.90
22112;DHT22;11222;50.872;4.312;2023-11-18T06:48:14;9.20;99.90
22112;DHT22;11222;50.872;4.312;2023-11-18T06:50:40;9.10;99.90
22112;DHT22;11222;50.872;4.312;2023-11-18T06:53:09;9.10;99.90
22112;DHT22;11222;50.872;4.312;2023-11-18T06:55:36;9.10;99.90
22112;DHT22;11222;50.872;4.312;2023-11-18T06:58:02;9.10;99.90
22112;DHT22;11222;50.872;4.312;2023-11-18T07:00:28;9.20;99.90
22112;DHT22;11222;50.872;4.312;2023-11-18T07:02:54;9.30;99.90
22112;DHT22;11222;50.872;4.312;2023-11-18T07:05:20;9.30;99.90
22112;DHT22;11222;50.872;4.312;2023-11-18T07:07:49;9.30;99.90
22112;DHT22;11222;50.872;4.312;2023-11-18T07:10:15;9.40;99.90
22112;DHT22;11222;50.872;4.312;2023-11-18T07:12:43;9.30;99.90
22112;DHT22;11222;50.872;4.312;2023-11-18T07:15:09;9.40;99.90
22112;DHT22;11222;50.872;4.312;2023-11-18T07:17:36;9.50;99.90
22112;DHT22;11222;50.872;4.312;2023-11-18T07:20:01;9.50;99.90
22112;DHT22;11222;50.872;4.312;2023-11-18T07:22:27;9.50;99.90
22112;DHT22;11222;50.872;4.312;2023-11-18T07:24:53;9.60;99.90
22112;DHT22;11222;50.872;4.312;2023-11-18T07:27:18;9.50;99.90
22112;DHT22;11222;50.872;4.312;2023-11-18T07:29:44;9.50;99.90
22112;DHT22;11222;50.872;4.312;2023-11-18T07:32:10;9.50;99.90
22112;DHT22;11222;50.872;4.312;2023-11-18T07:34:36;9.40;99.90
22112;DHT22;11222;50.872;4.312;2023-11-18T07:37:03;9.40;99.90
22112;DHT22;11222;50.872;4.312;2023-11-18T07:39:28;9.40;99.90
22112;DHT22;11222;50.872;4.312;2023-11-18T07:42:12;9.40;99.90
22112;DHT22;11222;50.872;4.312;2023-11-18T07:44:39;9.40;99.90
22112;DHT22;11222;50.872;4.312;2023-11-18T07:47:04;9.30;99.90
22112;DHT22;11222;50.872;4.312;2023-11-18T07:49:31;9.20;99.90
22112;DHT22;11222;50.872;4.312;2023-11-18T07:51:56;9.20;99.90
22112;DHT22;11222;50.872;4.312;2023-11-18T07:54:22;9.30;99.90
22112;DHT22;11222;50.872;4.312;2023-11-18T07:56:49;9.30;99.90
22112;DHT22;11222;50.872;4.312;2023-11-18T07:59:16;9.30;99.90
22112;DHT22;11222;50.872;4.312;2023-11-18T08:01:43;9.30;99.90
22112;DHT22;11222;50.872;4.312;2023-11-18T08:04:09;9.30;99.90
22112;DHT22;11222;50.872;4.312;2023-11-18T08:06:35;9.20;99.90
22112;DHT22;11222;50.872;4.312;2023-11-18T08:09:00;9.10;99.90
22112;DHT22;11222;50.872;4.312;2023-11-18T08:11:26;9.00;99.90
22112;DHT22;11222;50.872;4.312;2023-11-18T08:13:51;9.10;99.90
22112;DHT22;11222;50.872;4.312;2023-11-18T08:16:18;9.20;99.90
22112;DHT22;11222;50.872;4.312;2023-11-18T08:18:44;9.00;99.90
22112;DHT22;11222;50.872;4.312;2023-11-18T08:21:10;8.90;99.90
22112;DHT22;11222;50.872;4.312;2023-11-18T08:23:37;8.80;99.90
22112;DHT22;11222;50.872;4.312;2023-11-18T08:26:03;8.80;99.90
22112;DHT22;11222;50.872;4.312;2023-11-18T08:28:30;8.80;99.90
22112;DHT22;11222;50.872;4.312;2023-11-18T08:30:56;8.90;99.90
22112;DHT22;11222;50.872;4.312;2023-11-18T08:33:22;8.90;99.90
22112;DHT22;11222;50.872;4.312;2023-11-18T08:35:49;8.80;99.90
22112;DHT22;11222;50.872;4.312;2023-11-18T08:38:15;8.80;99.90
22112;DHT22;11222;50.872;4.312;2023-11-18T08:40:40;8.70;99.90
22112;DHT22;11222;50.872;4.312;2023-11-18T08:43:08;8.70;99.90
22112;DHT22;11222;50.872;4.312;2023-11-18T08:45:33;8.80;99.90
22112;DHT22;11222;50.872;4.312;2023-11-18T08:48:00;8.80;99.90
22112;DHT22;11222;50.872;4.312;2023-11-18T08:50:33;8.80;99.90
22112;DHT22;11222;50.872;4.312;2023-11-18T08:52:59;8.80;99.90
22112;DHT22;11222;50.872;4.312;2023-11-18T08:55:28;8.90;99.90
22112;DHT22;11222;50.872;4.312;2023-11-18T08:58:07;8.90;99.90
22112;DHT22;11222;50.872;4.312;2023-11-18T09:00:48;8.90;99.90
22112;DHT22;11222;50.872;4.312;2023-11-18T09:03:21;8.80;99.90
22112;DHT22;11222;50.872;4.312;2023-11-18T09:05:51;8.90;99.90
22112;DHT22;11222;50.872;4.312;2023-11-18T09:08:32;8.90;99.90
22112;DHT22;11222;50.872;4.312;2023-11-18T09:11:01;8.90;99.90
22112;DHT22;11222;50.872;4.312;2023-11-18T09:13:27;8.80;99.90
22112;DHT22;11222;50.872;4.312;2023-11-18T09:16:00;8.80;99.90
22112;DHT22;11222;50.872;4.312;2023-11-18T09:18:26;8.80;99.90
22112;DHT22;11222;50.872;4.312;2023-11-18T09:20:55;8.90;99.90
22112;DHT22;11222;50.872;4.312;2023-11-18T09:23:22;8.90;99.90
22112;DHT22;11222;50.872;4.312;2023-11-18T09:25:49;9.00;99.90
22112;DHT22;11222;50.872;4.312;2023-11-18T09:28:15;9.10;99.90
22112;DHT22;11222;50.872;4.312;2023-11-18T09:30:42;9.10;99.90
22112;DHT22;11222;50.872;4.312;2023-11-18T09:33:17;9.10;99.90
22112;DHT22;11222;50.872;4.312;2023-11-18T09:35:54;9.10;99.90
22112;DHT22;11222;50.872;4.312;2023-11-18T09:38:29;9.00;99.90
22112;DHT22;11222;50.872;4.312;2023-11-18T09:40:56;9.00;99.90
22112;DHT22;11222;50.872;4.312;2023-11-18T09:43:21;9.00;99.90
22112;DHT22;11222;50.872;4.312;2023-11-18T09:45:56;9.00;99.90
22112;DHT22;11222;50.872;4.312;2023-11-18T09:48:22;9.00;99.90
22112;DHT22;11222;50.872;4.312;2023-11-18T09:50:51;8.90;99.90
22112;DHT22;11222;50.872;4.312;2023-11-18T09:53:17;8.90;99.90
22112;DHT22;11222;50.872;4.312;2023-11-18T09:55:56;8.90;99.90
22112;DHT22;11222;50.872;4.312;2023-11-18T09:58:25;8.90;99.90
22112;DHT22;11222;50.872;4.312;2023-11-18T10:00:56;8.90;99.90
22112;DHT22;11222;50.872;4.312;2023-11-18T10:03:23;8.80;99.90
22112;DHT22;11222;50.872;4.312;2023-11-18T10:05:48;8.80;99.90
22112;DHT22;11222;50.872;4.312;2023-11-18T10:08:15;8.80;99.90
22112;DHT22;11222;50.872;4.312;2023-11-18T10:10:41;8.90;99.90
22112;DHT22;11222;50.872;4.312;2023-11-18T10:13:10;8.90;99.90
22112;DHT22;11222;50.872;4.312;2023-11-18T10:15:47;8.90;99.90
22112;DHT22;11222;50.872;4.312;2023-11-18T10:18:17;9.00;99.90
22112;DHT22;11222;50.872;4.312;2023-11-18T10:20:48;9.10;99.90
22112;DHT22;11222;50.872;4.312;2023-11-18T10:23:17;9.10;99.90
22112;DHT22;11222;50.872;4.312;2023-11-18T10:28:26;9.00;99.90
22112;DHT22;11222;50.872;4.312;2023-11-18T10:31:07;9.00;99.90
22112;DHT22;11222;50.872;4.312;2023-11-18T10:33:38;9.00;99.90
22112;DHT22;11222;50.872;4.312;2023-11-18T10:36:04;9.10;99.90
22112;DHT22;11222;50.872;4.312;2023-11-18T10:38:31;9.00;99.90
22112;DHT22;11222;50.872;4.312;2023-11-18T10:40:57;9.10;99.90
22112;DHT22;11222;50.872;4.312;2023-11-18T10:43:23;9.20;99.90
22112;DHT22;11222;50.872;4.312;2023-11-18T10:46:06;9.10;99.90
22112;DHT22;11222;50.872;4.312;2023-11-18T10:48:43;9.10;99.90
22112;DHT22;11222;50.872;4.312;2023-11-18T10:51:10;9.10;99.90
22112;DHT22;11222;50.872;4.312;2023-11-18T10:53:41;9.20;99.90
22112;DHT22;11222;50.872;4.312;2023-11-18T10:56:21;9.10;99.90
22112;DHT22;11222;50.872;4.312;2023-11-18T10:58:52;9.10;99.90
22112;DHT22;11222;50.872;4.312;2023-11-18T11:01:31;9.10;99.90
22112;DHT22;11222;50.872;4.312;2023-11-18T11:03:57;9.20;99.90
22112;DHT22;11222;50.872;4.312;2023-11-18T11:06:26;9.30;99.90
22112;DHT22;11222;50.872;4.312;2023-11-18T11:08:56;9.20;99.90
22112;DHT22;11222;50.872;4.312;2023-11-18T11:11:24;9.30;99.90
22112;DHT22;11222;50.872;4.312;2023-11-18T11:13:56;9.30;99.90
22112;DHT22;11222;50.872;4.312;2023-11-18T11:16:22;9.30;99.90
22112;DHT22;11222;50.872;4.312;2023-11-18T11:18:53;9.30;99.90
22112;DHT22;11222;50.872;4.312;2023-11-18T11:21:21;9.30;99.90
22112;DHT22;11222;50.872;4.312;2023-11-18T11:24:06;9.30;99.90
22112;DHT22;11222;50.872;4.312;2023-11-18T11:26:59;9.30;99.90
22112;DHT22;11222;50.872;4.312;2023-11-18T11:29:42;9.30;99.90
22112;DHT22;11222;50.872;4.312;2023-11-18T11:32:18;9.50;99.90
22112;DHT22;11222;50.872;4.312;2023-11-18T11:34:53;9.40;99.90
22112;DHT22;11222;50.872;4.312;2023-11-18T11:37:25;9.50;99.90
22112;DHT22;11222;50.872;4.312;2023-11-18T11:39:51;9.50;99.90
22112;DHT22;11222;50.872;4.312;2023-11-18T11:42:19;9.50;99.90
22112;DHT22;11222;50.872;4.312;2023-11-18T11:44:46;9.50;99.90
22112;DHT22;11222;50.872;4.312;2023-11-18T11:47:12;9.50;99.90
22112;DHT22;11222;50.872;4.312;2023-11-18T11:49:43;9.60;99.90
22112;DHT22;11222;50.872;4.312;2023-11-18T11:52:22;9.70;99.90
22112;DHT22;11222;50.872;4.312;2023-11-18T11:55:07;9.70;99.90
22112;DHT22;11222;50.872;4.312;2023-11-18T11:57:38;9.50;99.90
22112;DHT22;11222;50.872;4.312;2023-11-18T12:00:04;9.50;99.90
22112;DHT22;11222;50.872;4.312;2023-11-18T12:02:47;9.50;99.90
22112;DHT22;11222;50.872;4.312;2023-11-18T12:05:17;9.50;99.90
22112;DHT22;11222;50.872;4.312;2023-11-18T12:07:44;9.50;99.90
22112;DHT22;11222;50.872;4.312;2023-11-18T12:10:11;9.50;99.90
22112;DHT22;11222;50.872;4.312;2023-11-18T12:12:45;9.50;99.90
22112;DHT22;11222;50.872;4.312;2023-11-18T12:15:13;9.50;99.90
22112;DHT22;11222;50.872;4.312;2023-11-18T12:23:12;9.60;99.90
22112;DHT22;11222;50.872;4.312;2023-11-18T12:25:41;9.60;99.90
22112;DHT22;11222;50.872;4.312;2023-11-18T12:28:11;9.60;99.90
22112;DHT22;11222;50.872;4.312;2023-11-18T12:30:40;9.70;99.90
22112;DHT22;11222;50.872;4.312;2023-11-18T12:33:20;9.70;99.90
22112;DHT22;11222;50.872;4.312;2023-11-18T12:41:01;9.70;99.90
22112;DHT22;11222;50.872;4.312;2023-11-18T12:48:43;9.60;99.90
22112;DHT22;11222;50.872;4.312;2023-11-18T12:51:09;9.60;99.90
22112;DHT22;11222;50.872;4.312;2023-11-18T12:53:48;9.70;99.90
22112;DHT22;11222;50.872;4.312;2023-11-18T12:56:21;9.60;99.90
22112;DHT22;11222;50.872;4.312;2023-11-18T12:58:48;9.60;99.90
22112;DHT22;11222;50.872;4.312;2023-11-18T13:01:14;9.60;99.90
22112;DHT22;11222;50.872;4.312;2023-11-18T13:03:41;9.60;99.90
22112;DHT22;11222;50.872;4.312;2023-11-18T13:06:13;9.60;99.90
22112;DHT22;11222;50.872;4.312;2023-11-18T13:08:42;9.60;99.90
22112;DHT22;11222;50.872;4.312;2023-11-18T13:11:08;9.60;99.90
22112;DHT22;11222;50.872;4.312;2023-11-18T13:13:44;9.60;99.90
22112;DHT22;11222;50.872;4.312;2023-11-18T13:16:10;9.60;99.90
22112;DHT22;11222;50.872;4.312;2023-11-18T13:18:45;9.60;99.90
22112;DHT22;11222;50.872;4.312;2023-11-18T13:21:15;9.60;99.90
22112;DHT22;11222;50.872;4.312;2023-11-18T13:23:41;9.60;99.90
22112;DHT22;11222;50.872;4.312;2023-11-18T13:26:10;9.60;99.90
22112;DHT22;11222;50.872;4.312;2023-11-18T13:28:37;9.70;99.90
22112;DHT22;11222;50.872;4.312;2023-11-18T13:31:05;9.70;99.90
22112;DHT22;11222;50.872;4.312;2023-11-18T13:33:40;9.60;99.90
22112;DHT22;11222;50.872;4.312;2023-11-18T13:36:06;9.70;99.90
22112;DHT22;11222;50.872;4.312;2023-11-18T13:38:38;9.60;99.90
22112;DHT22;11222;50.872;4.312;2023-11-18T13:41:05;9.60;99.90
22112;DHT22;11222;50.872;4.312;2023-11-18T13:43:45;9.70;99.90
22112;DHT22;11222;50.872;4.312;2023-11-18T13:46:13;9.70;99.90
22112;DHT22;11222;50.872;4.312;2023-11-18T13:48:39;9.70;99.90
22112;DHT22;11222;50.872;4.312;2023-11-18T13:51:11;9.70;99.90
22112;DHT22;11222;50.872;4.312;2023-11-18T13:53:40;9.70;99.90
22112;DHT22;11222;50.872;4.312;2023-11-18T13:56:08;9.70;99.90
22112;DHT22;11222;50.872;4.312;2023-11-18T13:58:35;9.70;99.90
22112;DHT22;11222;50.872;4.312;2023-11-18T14:01:07;9.80;99.90
22112;DHT22;11222;50.872;4.312;2023-11-18T14:03:36;9.80;99.90
22112;DHT22;11222;50.872;4.312;2023-11-18T14:06:06;9.80;99.90
22112;DHT22;11222;50.872;4.312;2023-11-18T14:08:32;9.80;99.90
22112;DHT22;11222;50.872;4.312;2023-11-18T14:10:59;9.80;99.90
22112;DHT22;11222;50.872;4.312;2023-11-18T14:13:25;9.80;99.90
22112;DHT22;11222;50.872;4.312;2023-11-18T14:15:57;9.80;99.90
22112;DHT22;11222;50.872;4.312;2023-11-18T14:18:23;9.80;99.90
22112;DHT22;11222;50.872;4.312;2023-11-18T14:20:48;9.80;99.90
22112;DHT22;11222;50.872;4.312;2023-11-18T14:23:15;9.80;99.90
22112;DHT22;11222;50.872;4.312;2023-11-18T14:25:40;9.90;99.90
22112;DHT22;11222;50.872;4.312;2023-11-18T14:28:07;9.90;99.90
22112;DHT22;11222;50.872;4.312;2023-11-18T14:30:34;9.90;99.90
22112;DHT22;11222;50.872;4.312;2023-11-18T14:32:59;9.90;99.90
22112;DHT22;11222;50.872;4.312;2023-11-18T14:35:25;9.90;99.90
22112;DHT22;11222;50.872;4.312;2023-11-18T14:37:51;10.00;99.90
22112;DHT22;11222;50.872;4.312;2023-11-18T14:40:16;10.00;99.90
22112;DHT22;11222;50.872;4.312;2023-11-18T14:42:46;10.00;99.90
22112;DHT22;11222;50.872;4.312;2023-11-18T14:45:13;10.00;99.90
22112;DHT22;11222;50.872;4.312;2023-11-18T14:47:40;10.00;99.90
22112;DHT22;11222;50.872;4.312;2023-11-18T14:50:06;10.00;99.90
22112;DHT22;11222;50.872;4.312;2023-11-18T14:52:47;10.00;99.90
22112;DHT22;11222;50.872;4.312;2023-11-18T14:55:14;10.00;99.90
22112;DHT22;11222;50.872;4.312;2023-11-18T14:57:43;10.00;99.90
22112;DHT22;11222;50.872;4.312;2023-11-18T15:00:09;10.10;99.90
22112;DHT22;11222;50.872;4.312;2023-11-18T15:02:50;10.10;99.90
22112;DHT22;11222;50.872;4.312;2023-11-18T15:05:16;10.10;99.90
22112;DHT22;11222;50.872;4.312;2023-11-18T15:07:45;10.10;99.90
22112;DHT22;11222;50.872;4.312;2023-11-18T15:10:10;10.10;99.90
22112;DHT22;11222;50.872;4.312;2023-11-18T15:12:36;10.10;99.90
22112;DHT22;11222;50.872;4.312;2023-11-18T15:15:02;10.10;99.90
22112;DHT22;11222;50.872;4.312;2023-11-18T15:17:29;10.10;99.90
22112;DHT22;11222;50.872;4.312;2023-11-18T15:19:55;10.20;99.90
22112;DHT22;11222;50.872;4.312;2023-11-18T15:22:21;10.20;99.90
22112;DHT22;11222;50.872;4.312;2023-11-18T15:24:48;10.20;99.90
22112;DHT22;11222;50.872;4.312;2023-11-18T15:27:14;10.20;99.90
22112;DHT22;11222;50.872;4.312;2023-11-18T15:29:40;10.20;99.90
22112;DHT22;11222;50.872;4.312;2023-11-18T15:32:16;10.30;99.90
22112;DHT22;11222;50.872;4.312;2023-11-18T15:34:42;10.30;99.90
22112;DHT22;11222;50.872;4.312;2023-11-18T15:37:08;10.30;99.90
22112;DHT22;11222;50.872;4.312;2023-11-18T15:39:34;10.30;99.90
22112;DHT22;11222;50.872;4.312;2023-11-18T15:42:00;10.40;99.90
22112;DHT22;11222;50.872;4.312;2023-11-18T15:44:26;10.40;99.90
22112;DHT22;11222;50.872;4.312;2023-11-18T15:46:54;10.40;99.90
22112;DHT22;11222;50.872;4.312;2023-11-18T15:49:19;10.40;99.90
22112;DHT22;11222;50.872;4.312;2023-11-18T15:51:45;10.40;99.90
22112;DHT22;11222;50.872;4.312;2023-11-18T15:54:11;10.50;99.90
22112;DHT22;11222;50.872;4.312;2023-11-18T15:56:40;10.50;99.90
22112;DHT22;11222;50.872;4.312;2023-11-18T15:59:07;10.50;99.90
22112;DHT22;11222;50.872;4.312;2023-11-18T16:01:34;10.60;99.90
22112;DHT22;11222;50.872;4.312;2023-11-18T16:04:00;10.60;99.90
22112;DHT22;11222;50.872;4.312;2023-11-18T16:06:26;10.70;99.90
22112;DHT22;11222;50.872;4.312;2023-11-18T16:08:51;10.70;99.90